sensor_id;sensor_type;location;lat;lon;timestamp;temperature;humidity
6930;DHT22;3504;52.616;13.238;2023-04-24T00:01:05;11.87;75.32
6930;DHT22;3504;52.616;13.238;2023-04-24T00:06:07;11.81;75.52
6930;DHT22;3504;52.616;13.238;2023-04-24T00:11:08;11.81;75.74
6930;DHT22;3504;52.616;13.238;2023-04-24T00:16:09;11.81;75.41
6930;DHT22;3504;52.616;13.238;2023-04-24T00:21:10;11.77;75.76
6930;DHT22;3504;52.616;13.238;2023-04-24T00:26:11;11.74;75.95
6930;DHT22;3504;52.616;13.238;2023-04-24T00:31:12;11.70;76.31
6930;DHT22;3504;52.616;13.238;2023-04-24T00:36:12;11.67;77.10
6930;DHT22;3504;52.616;13.238;2023-04-24T00:41:13;11.64;76.90
6930;DHT22;3504;52.616;13.238;2023-04-24T00:46:14;11.64;77.38
6930;DHT22;3504;52.616;13.238;2023-04-24T00:51:14;11.63;77.66
6930;DHT22;3504;52.616;13.238;2023-04-24T00:56:16;11.64;77.49
6930;DHT22;3504;52.616;13.238;2023-04-24T01:01:20;11.66;77.57
6930;DHT22;3504;52.616;13.238;2023-04-24T01:06:28;11.67;77.47
6930;DHT22;3504;52.616;13.238;2023-04-24T01:11:31;11.68;77.69
6930;DHT22;3504;52.616;13.238;2023-04-24T01:16:32;11.73;78.22
6930;DHT22;3504;52.616;13.238;2023-04-24T01:21:36;11.74;78.29
6930;DHT22;3504;52.616;13.238;2023-04-24T01:26:37;11.79;78.74
6930;DHT22;3504;52.616;13.238;2023-04-24T01:31:39;11.82;79.21
6930;DHT22;3504;52.616;13.238;2023-04-24T01:36:41;11.87;79.96
6930;DHT22;3504;52.616;13.238;2023-04-24T01:41:43;11.85;81.17
6930;DHT22;3504;52.616;13.238;2023-04-24T01:46:44;11.87;81.68
6930;DHT22;3504;52.616;13.238;2023-04-24T01:51:45;11.88;82.07
6930;DHT22;3504;52.616;13.238;2023-04-24T01:56:46;11.97;82.21
6930;DHT22;3504;52.616;13.238;2023-04-24T02:01:46;11.97;82.10
6930;DHT22;3504;52.616;13.238;2023-04-24T02:06:47;11.97;82.47
6930;DHT22;3504;52.616;13.238;2023-04-24T02:11:47;11.95;81.93
6930;DHT22;3504;52.616;13.238;2023-04-24T02:16:48;11.98;81.75
6930;DHT22;3504;52.616;13.238;2023-04-24T02:21:48;11.94;81.79
6930;DHT22;3504;52.616;13.238;2023-04-24T02:26:49;11.95;82.24
6930;DHT22;3504;52.616;13.238;2023-04-24T02:31:49;11.97;81.93
6930;DHT22;3504;52.616;13.238;2023-04-24T02:36:50;11.94;81.97
6930;DHT22;3504;52.616;13.238;2023-04-24T02:41:50;11.92;81.80
6930;DHT22;3504;52.616;13.238;2023-04-24T02:46:51;11.92;81.35
6930;DHT22;3504;52.616;13.238;2023-04-24T02:51:51;11.88;81.78
6930;DHT22;3504;52.616;13.238;2023-04-24T02:56:52;11.84;82.07
6930;DHT22;3504;52.616;13.238;2023-04-24T03:01:53;11.84;82.43
6930;DHT22;3504;52.616;13.238;2023-04-24T03:06:53;11.82;82.63
6930;DHT22;3504;52.616;13.238;2023-04-24T03:11:55;11.85;82.30
6930;DHT22;3504;52.616;13.238;2023-04-24T03:16:55;11.85;82.69
6930;DHT22;3504;52.616;13.238;2023-04-24T03:21:56;11.85;82.91
6930;DHT22;3504;52.616;13.238;2023-04-24T03:26:58;11.82;83.06
6930;DHT22;3504;52.616;13.238;2023-04-24T03:32:22;11.87;82.58
6930;DHT22;3504;52.616;13.238;2023-04-24T03:37:23;11.88;82.80
6930;DHT22;3504;52.616;13.238;2023-04-24T03:42:35;11.92;82.54
6930;DHT22;3504;52.616;13.238;2023-04-24T03:47:35;11.94;82.44
6930;DHT22;3504;52.616;13.238;2023-04-24T03:52:38;11.98;82.26
6930;DHT22;3504;52.616;13.238;2023-04-24T03:57:40;12.01;82.19
6930;DHT22;3504;52.616;13.238;2023-04-24T04:02:50;11.98;82.33
6930;DHT22;3504;52.616;13.238;2023-04-24T04:07:50;12.02;82.37
6930;DHT22;3504;52.616;13.238;2023-04-24T04:12:51;12.04;82.31
6930;DHT22;3504;52.616;13.238;2023-04-24T04:17:51;12.02;82.20
6930;DHT22;3504;52.616;13.238;2023-04-24T04:22:52;12.04;82.31
6930;DHT22;3504;52.616;13.238;2023-04-24T04:28:00;12.01;82.26
6930;DHT22;3504;52.616;13.238;2023-04-24T04:33:02;11.97;82.53
6930;DHT22;3504;52.616;13.238;2023-04-24T04:38:05;11.97;82.15
6930;DHT22;3504;52.616;13.238;2023-04-24T04:43:16;11.98;81.89
6930;DHT22;3504;52.616;13.238;2023-04-24T04:48:23;12.02;81.83
6930;DHT22;3504;52.616;13.238;2023-04-24T04:53:25;12.05;81.82
6930;DHT22;3504;52.616;13.238;2023-04-24T04:58:26;12.12;81.60
6930;DHT22;3504;52.616;13.238;2023-04-24T05:03:31;12.19;81.59
6930;DHT22;3504;52.616;13.238;2023-04-24T05:08:37;12.29;81.14
6930;DHT22;3504;52.616;13.238;2023-04-24T05:13:40;12.33;81.08
6930;DHT22;3504;52.616;13.238;2023-04-24T05:18:46;12.46;80.69
6930;DHT22;3504;52.616;13.238;2023-04-24T05:23:50;12.57;80.77
6930;DHT22;3504;52.616;13.238;2023-04-24T05:28:59;12.67;80.52
6930;DHT22;3504;52.616;13.238;2023-04-24T05:34:00;12.73;80.21
6930;DHT22;3504;52.616;13.238;2023-04-24T05:39:01;12.96;79.84
6930;DHT22;3504;52.616;13.238;2023-04-24T05:44:02;13.12;78.57
6930;DHT22;3504;52.616;13.238;2023-04-24T05:49:02;13.32;78.21
6930;DHT22;3504;52.616;13.238;2023-04-24T05:54:05;13.67;77.64
6930;DHT22;3504;52.616;13.238;2023-04-24T05:59:06;13.82;76.11
6930;DHT22;3504;52.616;13.238;2023-04-24T06:04:07;13.99;75.25
6930;DHT22;3504;52.616;13.238;2023-04-24T06:09:07;14.10;75.12
6930;DHT22;3504;52.616;13.238;2023-04-24T06:14:08;14.30;74.50
6930;DHT22;3504;52.616;13.238;2023-04-24T06:19:11;14.41;73.03
6930;DHT22;3504;52.616;13.238;2023-04-24T06:24:14;14.58;72.67
6930;DHT22;3504;52.616;13.238;2023-04-24T06:29:14;14.85;71.85
6930;DHT22;3504;52.616;13.238;2023-04-24T06:34:15;15.16;70.93
6930;DHT22;3504;52.616;13.238;2023-04-24T06:39:15;15.44;69.01
6930;DHT22;3504;52.616;13.238;2023-04-24T06:44:17;15.70;69.35
6930;DHT22;3504;52.616;13.238;2023-04-24T06:49:17;15.80;67.64
6930;DHT22;3504;52.616;13.238;2023-04-24T06:54:18;15.49;65.87
6930;DHT22;3504;52.616;13.238;2023-04-24T06:59:18;15.42;66.02
6930;DHT22;3504;52.616;13.238;2023-04-24T07:04:19;15.36;65.07
6930;DHT22;3504;52.616;13.238;2023-04-24T07:09:20;15.12;65.04
6930;DHT22;3504;52.616;13.238;2023-04-24T07:14:20;15.05;64.69
6930;DHT22;3504;52.616;13.238;2023-04-24T07:19:21;15.20;66.63
6930;DHT22;3504;52.616;13.238;2023-04-24T07:24:25;15.37;65.45
6930;DHT22;3504;52.616;13.238;2023-04-24T07:29:26;15.81;65.28
6930;DHT22;3504;52.616;13.238;2023-04-24T07:34:27;16.17;63.72
6930;DHT22;3504;52.616;13.238;2023-04-24T07:39:27;16.60;62.88
6930;DHT22;3504;52.616;13.238;2023-04-24T07:44:29;16.72;60.40
6930;DHT22;3504;52.616;13.238;2023-04-24T07:49:29;16.80;58.12
6930;DHT22;3504;52.616;13.238;2023-04-24T07:54:30;16.79;58.73
6930;DHT22;3504;52.616;13.238;2023-04-24T07:59:31;16.82;57.69
6930;DHT22;3504;52.616;13.238;2023-04-24T08:04:32;16.84;56.23
6930;DHT22;3504;52.616;13.238;2023-04-24T08:09:32;16.96;56.50
6930;DHT22;3504;52.616;13.238;2023-04-24T08:14:33;17.18;57.09
6930;DHT22;3504;52.616;13.238;2023-04-24T08:19:33;17.17;55.65
6930;DHT22;3504;52.616;13.238;2023-04-24T08:24:33;17.17;56.23
6930;DHT22;3504;52.616;13.238;2023-04-24T08:29:34;17.21;57.33
6930;DHT22;3504;52.616;13.238;2023-04-24T08:34:34;17.28;55.02
6930;DHT22;3504;52.616;13.238;2023-04-24T08:39:35;17.08;55.14
6930;DHT22;3504;52.616;13.238;2023-04-24T08:44:36;17.06;56.20
6930;DHT22;3504;52.616;13.238;2023-04-24T08:49:38;17.18;56.38
6930;DHT22;3504;52.616;13.238;2023-04-24T08:54:39;17.27;55.24
6930;DHT22;3504;52.616;13.238;2023-04-24T08:59:42;17.32;55.38
6930;DHT22;3504;52.616;13.238;2023-04-24T09:04:44;17.56;56.53
6930;DHT22;3504;52.616;13.238;2023-04-24T09:09:46;17.65;55.58
6930;DHT22;3504;52.616;13.238;2023-04-24T09:14:48;17.56;56.25
6930;DHT22;3504;52.616;13.238;2023-04-24T09:19:49;17.49;56.37
6930;DHT22;3504;52.616;13.238;2023-04-24T09:25:02;17.56;55.99
6930;DHT22;3504;52.616;13.238;2023-04-24T09:30:04;17.64;55.56
6930;DHT22;3504;52.616;13.238;2023-04-24T09:40:19;17.42;56.68
6930;DHT22;3504;52.616;13.238;2023-04-24T09:45:26;17.03;56.98
6930;DHT22;3504;52.616;13.238;2023-04-24T09:50:32;16.72;58.11
6930;DHT22;3504;52.616;13.238;2023-04-24T09:55:32;16.57;59.18
6930;DHT22;3504;52.616;13.238;2023-04-24T10:00:33;16.52;61.27
6930;DHT22;3504;52.616;13.238;2023-04-24T10:05:36;16.60;59.86
6930;DHT22;3504;52.616;13.238;2023-04-24T10:10:44;16.63;59.95
6930;DHT22;3504;52.616;13.238;2023-04-24T10:15:45;16.59;59.63
6930;DHT22;3504;52.616;13.238;2023-04-24T10:20:47;16.86;59.36
6930;DHT22;3504;52.616;13.238;2023-04-24T10:25:49;17.15;57.71
6930;DHT22;3504;52.616;13.238;2023-04-24T10:30:51;17.04;58.19
6930;DHT22;3504;52.616;13.238;2023-04-24T10:35:55;16.79;58.65
6930;DHT22;3504;52.616;13.238;2023-04-24T10:41:11;16.60;57.50
6930;DHT22;3504;52.616;13.238;2023-04-24T10:46:19;16.55;58.72
6930;DHT22;3504;52.616;13.238;2023-04-24T10:51:22;16.70;58.60
6930;DHT22;3504;52.616;13.238;2023-04-24T10:56:23;17.01;59.29
6930;DHT22;3504;52.616;13.238;2023-04-24T11:01:29;17.41;57.33
6930;DHT22;3504;52.616;13.238;2023-04-24T11:06:35;17.66;56.36
6930;DHT22;3504;52.616;13.238;2023-04-24T11:11:37;17.66;55.07
6930;DHT22;3504;52.616;13.238;2023-04-24T11:16:54;17.48;55.96
6930;DHT22;3504;52.616;13.238;2023-04-24T11:22:02;17.45;56.27
6930;DHT22;3504;52.616;13.238;2023-04-24T11:32:31;17.86;54.78
6930;DHT22;3504;52.616;13.238;2023-04-24T11:37:39;18.10;53.34
6930;DHT22;3504;52.616;13.238;2023-04-24T11:42:48;18.18;52.71
6930;DHT22;3504;52.616;13.238;2023-04-24T11:47:50;18.47;53.14
6930;DHT22;3504;52.616;13.238;2023-04-24T11:52:50;18.89;51.91
6930;DHT22;3504;52.616;13.238;2023-04-24T11:57:54;18.58;53.07
6930;DHT22;3504;52.616;13.238;2023-04-24T12:03:10;18.37;53.90
6930;DHT22;3504;52.616;13.238;2023-04-24T12:08:11;18.16;54.45
6930;DHT22;3504;52.616;13.238;2023-04-24T12:13:12;17.87;55.09
6930;DHT22;3504;52.616;13.238;2023-04-24T12:18:13;17.56;54.21
6930;DHT22;3504;52.616;13.238;2023-04-24T12:23:36;17.51;56.15
6930;DHT22;3504;52.616;13.238;2023-04-24T12:28:38;17.74;52.96
6930;DHT22;3504;52.616;13.238;2023-04-24T12:33:39;17.90;53.63
6930;DHT22;3504;52.616;13.238;2023-04-24T12:38:39;17.75;50.08
6930;DHT22;3504;52.616;13.238;2023-04-24T12:44:10;17.68;50.76
6930;DHT22;3504;52.616;13.238;2023-04-24T12:49:10;17.51;50.66
6930;DHT22;3504;52.616;13.238;2023-04-24T12:54:11;17.44;52.58
6930;DHT22;3504;52.616;13.238;2023-04-24T12:59:12;17.55;52.69
6930;DHT22;3504;52.616;13.238;2023-04-24T13:04:12;17.89;52.36
6930;DHT22;3504;52.616;13.238;2023-04-24T13:09:13;17.81;52.91
6930;DHT22;3504;52.616;13.238;2023-04-24T13:14:14;17.51;55.11
6930;DHT22;3504;52.616;13.238;2023-04-24T13:19:14;17.54;57.64
6930;DHT22;3504;52.616;13.238;2023-04-24T13:24:15;17.79;56.24
6930;DHT22;3504;52.616;13.238;2023-04-24T13:29:16;17.92;55.56
6930;DHT22;3504;52.616;13.238;2023-04-24T13:34:17;18.02;55.00
6930;DHT22;3504;52.616;13.238;2023-04-24T13:39:18;18.33;53.69
6930;DHT22;3504;52.616;13.238;2023-04-24T13:44:19;18.43;51.03
6930;DHT22;3504;52.616;13.238;2023-04-24T13:49:21;18.51;49.00
6930;DHT22;3504;52.616;13.238;2023-04-24T13:54:22;18.56;48.44
6930;DHT22;3504;52.616;13.238;2023-04-24T13:59:24;18.34;48.67
6930;DHT22;3504;52.616;13.238;2023-04-24T14:04:24;18.16;48.94
6930;DHT22;3504;52.616;13.238;2023-04-24T14:09:25;18.07;47.73
6930;DHT22;3504;52.616;13.238;2023-04-24T14:14:25;18.28;45.39
6930;DHT22;3504;52.616;13.238;2023-04-24T14:19:26;18.03;42.47
6930;DHT22;3504;52.616;13.238;2023-04-24T14:24:29;18.12;42.08
6930;DHT22;3504;52.616;13.238;2023-04-24T14:29:29;18.26;42.18
6930;DHT22;3504;52.616;13.238;2023-04-24T14:34:30;18.14;42.33
6930;DHT22;3504;52.616;13.238;2023-04-24T14:39:30;18.27;40.86
6930;DHT22;3504;52.616;13.238;2023-04-24T14:44:31;18.26;41.31
6930;DHT22;3504;52.616;13.238;2023-04-24T14:49:32;18.16;40.40
6930;DHT22;3504;52.616;13.238;2023-04-24T14:54:33;17.90;41.67
6930;DHT22;3504;52.616;13.238;2023-04-24T14:59:33;17.81;41.73
6930;DHT22;3504;52.616;13.238;2023-04-24T15:04:34;17.75;43.04
6930;DHT22;3504;52.616;13.238;2023-04-24T15:09:35;17.93;43.17
6930;DHT22;3504;52.616;13.238;2023-04-24T15:14:35;17.97;43.54
6930;DHT22;3504;52.616;13.238;2023-04-24T15:19:36;17.64;43.28
6930;DHT22;3504;52.616;13.238;2023-04-24T15:24:36;17.32;43.12
6930;DHT22;3504;52.616;13.238;2023-04-24T15:29:38;17.04;43.48
6930;DHT22;3504;52.616;13.238;2023-04-24T15:34:38;16.89;44.61
6930;DHT22;3504;52.616;13.238;2023-04-24T15:39:39;16.80;45.30
6930;DHT22;3504;52.616;13.238;2023-04-24T15:44:39;16.86;45.99
6930;DHT22;3504;52.616;13.238;2023-04-24T15:49:40;17.04;43.83
6930;DHT22;3504;52.616;13.238;2023-04-24T15:54:40;17.21;43.41
6930;DHT22;3504;52.616;13.238;2023-04-24T15:59:41;17.24;42.79
6930;DHT22;3504;52.616;13.238;2023-04-24T16:04:41;17.24;43.92
6930;DHT22;3504;52.616;13.238;2023-04-24T16:09:42;16.97;41.97
6930;DHT22;3504;52.616;13.238;2023-04-24T16:14:43;16.89;43.49
6930;DHT22;3504;52.616;13.238;2023-04-24T16:19:44;16.82;43.91
6930;DHT22;3504;52.616;13.238;2023-04-24T16:24:44;16.76;44.13
6930;DHT22;3504;52.616;13.238;2023-04-24T16:29:47;16.21;47.34
6930;DHT22;3504;52.616;13.238;2023-04-24T16:34:47;15.70;50.03
6930;DHT22;3504;52.616;13.238;2023-04-24T16:39:48;15.24;52.20
6930;DHT22;3504;52.616;13.238;2023-04-24T16:44:49;15.03;53.66
6930;DHT22;3504;52.616;13.238;2023-04-24T16:49:49;14.89;54.46
6930;DHT22;3504;52.616;13.238;2023-04-24T16:54:50;14.71;54.92
6930;DHT22;3504;52.616;13.238;2023-04-24T16:59:50;14.44;57.32
6930;DHT22;3504;52.616;13.238;2023-04-24T17:04:51;14.38;57.79
6930;DHT22;3504;52.616;13.238;2023-04-24T17:09:52;14.31;58.14
6930;DHT22;3504;52.616;13.238;2023-04-24T17:14:52;14.21;58.58
6930;DHT22;3504;52.616;13.238;2023-04-24T17:19:53;14.07;58.48
6930;DHT22;3504;52.616;13.238;2023-04-24T17:24:54;14.07;58.93
6930;DHT22;3504;52.616;13.238;2023-04-24T17:29:54;13.92;59.58
6930;DHT22;3504;52.616;13.238;2023-04-24T17:34:54;13.72;60.19
6930;DHT22;3504;52.616;13.238;2023-04-24T17:39:55;13.59;60.27
6930;DHT22;3504;52.616;13.238;2023-04-24T17:44:55;13.44;60.67
6930;DHT22;3504;52.616;13.238;2023-04-24T17:49:56;13.34;61.20
6930;DHT22;3504;52.616;13.238;2023-04-24T17:54:56;13.30;60.72
6930;DHT22;3504;52.616;13.238;2023-04-24T17:59:57;13.18;60.89
6930;DHT22;3504;52.616;13.238;2023-04-24T18:04:57;13.01;60.22
6930;DHT22;3504;52.616;13.238;2023-04-24T18:09:58;12.85;60.02
6930;DHT22;3504;52.616;13.238;2023-04-24T18:14:58;12.77;59.67
6930;DHT22;3504;52.616;13.238;2023-04-24T18:19:59;12.55;59.75
6930;DHT22;3504;52.616;13.238;2023-04-24T18:24:59;12.28;59.88
6930;DHT22;3504;52.616;13.238;2023-04-24T18:30:00;12.18;60.82
6930;DHT22;3504;52.616;13.238;2023-04-24T18:35:02;12.05;60.11
6930;DHT22;3504;52.616;13.238;2023-04-24T18:40:03;11.81;60.35
6930;DHT22;3504;52.616;13.238;2023-04-24T18:45:05;11.71;60.90
6930;DHT22;3504;52.616;13.238;2023-04-24T18:50:06;11.63;61.54
6930;DHT22;3504;52.616;13.238;2023-04-24T18:55:07;11.56;62.12
6930;DHT22;3504;52.616;13.238;2023-04-24T19:00:09;11.40;62.58
6930;DHT22;3504;52.616;13.238;2023-04-24T19:05:10;11.44;62.67
6930;DHT22;3504;52.616;13.238;2023-04-24T19:10:11;11.22;63.45
6930;DHT22;3504;52.616;13.238;2023-04-24T19:15:12;11.06;63.75
6930;DHT22;3504;52.616;13.238;2023-04-24T19:20:12;11.07;64.38
6930;DHT22;3504;52.616;13.238;2023-04-24T19:25:13;11.03;64.73
6930;DHT22;3504;52.616;13.238;2023-04-24T19:30:14;11.02;64.61
6930;DHT22;3504;52.616;13.238;2023-04-24T19:35:14;10.93;64.89
6930;DHT22;3504;52.616;13.238;2023-04-24T19:40:15;10.85;65.41
6930;DHT22;3504;52.616;13.238;2023-04-24T19:45:15;10.76;65.77
6930;DHT22;3504;52.616;13.238;2023-04-24T19:50:16;10.72;66.09
6930;DHT22;3504;52.616;13.238;2023-04-24T19:55:17;10.75;65.70
6930;DHT22;3504;52.616;13.238;2023-04-24T20:00:17;10.72;65.62
6930;DHT22;3504;52.616;13.238;2023-04-24T20:05:18;10.69;65.61
6930;DHT22;3504;52.616;13.238;2023-04-24T20:10:18;10.63;65.93
6930;DHT22;3504;52.616;13.238;2023-04-24T20:15:19;10.64;66.15
6930;DHT22;3504;52.616;13.238;2023-04-24T20:20:19;10.44;66.68
6930;DHT22;3504;52.616;13.238;2023-04-24T20:25:20;10.40;66.73
6930;DHT22;3504;52.616;13.238;2023-04-24T20:30:21;10.33;67.37
6930;DHT22;3504;52.616;13.238;2023-04-24T20:35:21;10.25;67.77
6930;DHT22;3504;52.616;13.238;2023-04-24T20:40:27;10.30;68.02
6930;DHT22;3504;52.616;13.238;2023-04-24T20:45:29;10.30;68.08
6930;DHT22;3504;52.616;13.238;2023-04-24T20:50:30;10.28;68.13
6930;DHT22;3504;52.616;13.238;2023-04-24T20:55:32;10.28;68.62
6930;DHT22;3504;52.616;13.238;2023-04-24T21:00:32;10.30;68.54
6930;DHT22;3504;52.616;13.238;2023-04-24T21:05:33;10.30;68.74
6930;DHT22;3504;52.616;13.238;2023-04-24T21:10:33;10.27;68.90
6930;DHT22;3504;52.616;13.238;2023-04-24T21:15:34;10.28;69.23
6930;DHT22;3504;52.616;13.238;2023-04-24T21:20:34;10.25;69.38
6930;DHT22;3504;52.616;13.238;2023-04-24T21:25:35;10.24;69.55
6930;DHT22;3504;52.616;13.238;2023-04-24T21:30:36;10.21;69.74
6930;DHT22;3504;52.616;13.238;2023-04-24T21:35:37;10.17;70.43
6930;DHT22;3504;52.616;13.238;2023-04-24T21:40:38;10.14;70.54
6930;DHT22;3504;52.616;13.238;2023-04-24T21:45:38;10.12;71.00
6930;DHT22;3504;52.616;13.238;2023-04-24T21:50:39;10.16;71.05
6930;DHT22;3504;52.616;13.238;2023-04-24T21:55:39;10.14;71.41
6930;DHT22;3504;52.616;13.238;2023-04-24T22:00:40;10.13;71.89
6930;DHT22;3504;52.616;13.238;2023-04-24T22:05:41;10.13;72.13
6930;DHT22;3504;52.616;13.238;2023-04-24T22:10:41;10.18;72.12
6930;DHT22;3504;52.616;13.238;2023-04-24T22:15:42;10.18;72.12
6930;DHT22;3504;52.616;13.238;2023-04-24T22:20:42;10.16;72.21
6930;DHT22;3504;52.616;13.238;2023-04-24T22:25:43;10.13;72.01
6930;DHT22;3504;52.616;13.238;2023-04-24T22:30:44;10.06;72.06
6930;DHT22;3504;52.616;13.238;2023-04-24T22:35:44;10.02;72.43
6930;DHT22;3504;52.616;13.238;2023-04-24T22:40:45;10.02;72.24
6930;DHT22;3504;52.616;13.238;2023-04-24T22:45:45;10.00;72.25
6930;DHT22;3504;52.616;13.238;2023-04-24T22:50:46;9.93;72.03
6930;DHT22;3504;52.616;13.238;2023-04-24T22:55:46;9.87;71.81
6930;DHT22;3504;52.616;13.238;2023-04-24T23:00:47;9.86;71.97
6930;DHT22;3504;52.616;13.238;2023-04-24T23:05:47;9.87;72.23
6930;DHT22;3504;52.616;13.238;2023-04-24T23:10:48;9.85;72.72
6930;DHT22;3504;52.616;13.238;2023-04-24T23:15:49;9.90;72.85
6930;DHT22;3504;52.616;13.238;2023-04-24T23:20:49;9.86;72.78
6930;DHT22;3504;52.616;13.238;2023-04-24T23:25:50;9.87;72.59
6930;DHT22;3504;52.616;13.238;2023-04-24T23:30:51;9.86;71.73
6930;DHT22;3504;52.616;13.238;2023-04-24T23:35:51;9.83;71.66
6930;DHT22;3504;52.616;13.238;2023-04-24T23:40:52;9.73;71.40
6930;DHT22;3504;52.616;13.238;2023-04-24T23:45:53;9.67;71.42
6930;DHT22;3504;52.616;13.238;2023-04-24T23:50:53;9.69;71.47
6930;DHT22;3504;52.616;13.238;2023-04-24T23:55:54;9.65;71.18
